Time;durP1;ratioP1;P1;durP2;ratioP2;P2;SDS_P1;SDS_P2;PMS_P1;PMS_P2;Temp;Humidity;BMP_temperature;BMP_pressure;BME280_temperature;BME280_humidity;BME280_pressure;Samples;Min_cycle;Max_cycle;Signal;HPM_P1;HPM_P2
2022/08/26 00:01:26;;;;;;;3.55;1.60;;;24.30;46.50;;;;;;2493159;55;21027;-76
2022/08/26 00:03:52;;;;;;;2.70;1.40;;;24.30;46.80;;;;;;2495981;55;21794;-73
2022/08/26 00:06:18;;;;;;;3.20;1.42;;;24.30;46.80;;;;;;2265769;55;20955;-72
2022/08/26 00:08:45;;;;;;;3.30;1.33;;;24.20;46.80;;;;;;2256725;55;20960;-72
2022/08/26 00:11:11;;;;;;;2.00;1.05;;;24.20;46.90;;;;;;2266846;56;20963;-75
2022/08/26 00:13:37;;;;;;;3.22;1.58;;;24.10;46.80;;;;;;2319167;55;20937;-76
2022/08/26 00:16:05;;;;;;;2.80;1.27;;;24.10;47.40;;;;;;2266342;55;21055;-73
2022/08/26 00:18:32;;;;;;;3.10;1.70;;;24.10;46.90;;;;;;2281805;55;20967;-73
2022/08/26 00:20:59;;;;;;;2.92;1.48;;;24.10;47.10;;;;;;2266570;55;20967;-73
2022/08/26 00:23:25;;;;;;;3.53;1.60;;;24.00;47.10;;;;;;2267299;55;20944;-73
2022/08/26 00:25:51;;;;;;;2.72;1.40;;;24.00;47.10;;;;;;2343616;55;20955;-73
2022/08/26 00:28:18;;;;;;;2.60;1.30;;;24.00;47.80;;;;;;2265770;55;21012;-73
2022/08/26 00:30:46;;;;;;;2.80;1.12;;;23.90;47.20;;;;;;2266131;55;21899;-73
2022/08/26 00:33:14;;;;;;;2.70;1.45;;;23.90;47.20;;;;;;2312193;55;21915;-74
2022/08/26 00:35:40;;;;;;;2.70;1.40;;;23.90;47.20;;;;;;2265713;55;21499;-74
2022/08/26 00:38:07;;;;;;;3.40;1.60;;;23.80;47.20;;;;;;2265818;56;21024;-73
2022/08/26 00:40:39;;;;;;;3.50;1.45;;;23.80;47.20;;;;;;2265614;55;20984;-73
2022/08/26 00:43:05;;;;;;;2.60;1.40;;;23.80;47.50;;;;;;2425641;55;21026;-73
2022/08/26 00:45:46;;;;;;;3.00;1.25;;;23.70;47.30;;;;;;2326894;55;20949;-74
2022/08/26 00:48:13;;;;;;;3.85;1.30;;;23.70;47.70;;;;;;2263852;55;20983;-74
2022/08/26 00:50:41;;;;;;;2.37;1.17;;;23.70;47.50;;;;;;2367245;55;21028;-73
2022/08/26 00:53:20;;;;;;;2.72;1.40;;;23.70;47.60;;;;;;2264502;55;21765;-73
2022/08/26 00:55:53;;;;;;;2.40;1.30;;;23.60;47.60;;;;;;2272956;55;21063;-73
2022/08/26 00:58:21;;;;;;;2.62;1.30;;;23.70;47.90;;;;;;2494245;55;20988;-72
2022/08/26 01:00:48;;;;;;;2.33;1.20;;;23.60;47.70;;;;;;2266215;55;21007;-73
2022/08/26 01:03:16;;;;;;;2.90;1.50;;;23.50;47.70;;;;;;2266366;55;21015;-74
2022/08/26 01:05:43;;;;;;;2.70;1.50;;;23.50;47.80;;;;;;2266972;55;20956;-72
2022/08/26 01:08:12;;;;;;;2.60;1.37;;;23.50;47.90;;;;;;2392511;55;20952;-74
2022/08/26 01:10:38;;;;;;;2.62;1.25;;;23.50;47.90;;;;;;2268432;55;20971;-73
2022/08/26 01:13:08;;;;;;;2.70;1.33;;;23.40;47.80;;;;;;2266097;55;20951;-74
2022/08/26 01:15:43;;;;;;;2.53;1.23;;;23.40;47.80;;;;;;2495442;55;21051;-73
2022/08/26 01:18:12;;;;;;;2.75;1.37;;;23.40;48.00;;;;;;2265833;55;20984;-73
2022/08/26 01:21:00;;;;;;;2.50;1.23;;;23.30;47.80;;;;;;2266472;55;20936;-73
2022/08/26 01:23:28;;;;;;;2.92;1.45;;;23.30;48.30;;;;;;2266478;55;20999;-73
2022/08/26 01:25:56;;;;;;;3.72;1.30;;;23.20;47.90;;;;;;2444337;55;21020;-73
2022/08/26 01:28:25;;;;;;;4.18;1.52;;;23.20;48.10;;;;;;2496906;55;21040;-73
2022/08/26 01:30:54;;;;;;;2.95;1.60;;;23.10;48.00;;;;;;2266360;55;21007;-73
2022/08/26 01:33:25;;;;;;;2.70;1.30;;;23.10;48.10;;;;;;2267788;55;20943;-73
2022/08/26 01:35:52;;;;;;;2.80;1.50;;;23.10;48.30;;;;;;2367197;55;20990;-73
2022/08/26 01:38:20;;;;;;;2.25;1.10;;;23.00;48.10;;;;;;2266430;55;21034;-73
2022/08/26 01:40:46;;;;;;;3.03;1.55;;;23.00;48.20;;;;;;2266124;55;20971;-73
2022/08/26 01:43:16;;;;;;;2.53;1.30;;;23.00;48.20;;;;;;2263796;56;20948;-73
2022/08/26 01:45:42;;;;;;;2.92;1.50;;;23.00;48.40;;;;;;2265782;55;21252;-73
2022/08/26 01:48:16;;;;;;;2.92;1.20;;;22.90;48.30;;;;;;2289329;55;20960;-73
2022/08/26 01:50:43;;;;;;;2.67;1.35;;;22.90;48.50;;;;;;2264923;55;20932;-73
2022/08/26 01:53:12;;;;;;;3.42;1.42;;;22.90;48.40;;;;;;2331307;55;21456;-75
2022/08/26 01:55:42;;;;;;;2.62;1.37;;;22.90;48.60;;;;;;2265961;55;21035;-72
2022/08/26 01:58:16;;;;;;;2.50;1.27;;;22.80;48.60;;;;;;2266545;55;21543;-74
2022/08/26 02:00:43;;;;;;;2.53;1.08;;;22.80;48.70;;;;;;2282679;55;21459;-74
2022/08/26 02:03:15;;;;;;;2.72;1.35;;;22.80;48.70;;;;;;2264093;55;21095;-73
2022/08/26 02:06:04;;;;;;;2.70;1.40;;;22.80;48.80;;;;;;2266604;55;21563;-75
2022/08/26 02:08:41;;;;;;;2.42;1.20;;;22.70;48.70;;;;;;2268231;55;20948;-73
2022/08/26 02:11:07;;;;;;;2.60;1.23;;;22.70;49.10;;;;;;2266487;55;21054;-72
2022/08/26 02:13:39;;;;;;;2.75;1.48;;;22.60;48.70;;;;;;2265648;55;20956;-73
2022/08/26 02:16:05;;;;;;;3.30;1.42;;;22.70;48.90;;;;;;2492037;55;21005;-73
2022/08/26 02:18:33;;;;;;;2.47;1.30;;;22.60;48.80;;;;;;2301565;55;20939;-73
2022/08/26 02:21:00;;;;;;;2.70;1.30;;;22.60;48.90;;;;;;2266214;56;21040;-73
2022/08/26 02:23:26;;;;;;;2.60;1.48;;;22.60;49.00;;;;;;2315744;55;20920;-75
2022/08/26 02:26:08;;;;;;;6.05;1.40;;;22.50;49.00;;;;;;2266548;55;21861;-73
2022/08/26 02:28:51;;;;;;;4.22;2.00;;;22.50;49.30;;;;;;2263853;56;20965;-73
2022/08/26 02:31:17;;;;;;;3.80;1.58;;;22.50;49.30;;;;;;2266277;55;20940;-76
2022/08/26 02:33:44;;;;;;;2.80;1.40;;;22.50;49.20;;;;;;2266569;55;20952;-73
2022/08/26 02:36:10;;;;;;;2.80;1.50;;;22.50;49.30;;;;;;2496373;55;20944;-74
2022/08/26 02:38:37;;;;;;;3.03;1.50;;;22.40;49.30;;;;;;2394031;55;20968;-73
2022/08/26 02:41:03;;;;;;;3.33;1.58;;;22.40;49.50;;;;;;2266597;55;20979;-75
2022/08/26 02:43:29;;;;;;;3.05;1.23;;;22.40;49.50;;;;;;2421242;55;20987;-74
2022/08/26 02:45:56;;;;;;;3.22;1.30;;;22.40;49.50;;;;;;2266676;55;21094;-76
2022/08/26 02:48:23;;;;;;;2.87;1.55;;;22.40;49.60;;;;;;2330359;55;20959;-71
2022/08/26 02:50:52;;;;;;;2.83;1.30;;;22.40;50.20;;;;;;2341221;55;21050;-73
2022/08/26 02:53:19;;;;;;;2.53;1.20;;;22.40;49.70;;;;;;2338583;55;21503;-73
2022/08/26 02:55:49;;;;;;;3.58;1.80;;;22.30;49.60;;;;;;2348478;55;21023;-76
2022/08/26 02:58:15;;;;;;;2.67;1.30;;;22.30;49.70;;;;;;2266664;55;20955;-72
2022/08/26 03:00:43;;;;;;;2.62;1.45;;;22.30;49.70;;;;;;2269243;55;21000;-73
2022/08/26 03:03:09;;;;;;;2.67;1.48;;;22.30;49.80;;;;;;2263517;56;20936;-73
2022/08/26 03:06:12;;;;;;;2.50;1.40;;;22.20;49.70;;;;;;2265275;55;20967;-75
2022/08/26 03:08:38;;;;;;;2.60;1.58;;;22.20;50.20;;;;;;2266587;55;20963;-73
2022/08/26 03:11:05;;;;;;;2.87;1.65;;;22.20;49.70;;;;;;2364130;55;21070;-73
2022/08/26 03:13:31;;;;;;;2.78;1.20;;;22.20;49.90;;;;;;2269566;55;21031;-74
2022/08/26 03:15:59;;;;;;;3.55;2.20;;;22.20;49.90;;;;;;2337965;55;21526;-73
2022/08/26 03:18:26;;;;;;;3.92;2.05;;;22.10;49.90;;;;;;2266199;55;21038;-75
2022/08/26 03:20:52;;;;;;;3.00;1.80;;;22.10;49.90;;;;;;2266429;55;21071;-73
2022/08/26 03:23:18;;;;;;;3.60;2.12;;;22.10;50.00;;;;;;2266606;55;21692;-76
2022/08/26 03:25:51;;;;;;;2.53;1.70;;;22.10;50.10;;;;;;2264771;55;21114;-73
2022/08/26 03:28:17;;;;;;;3.55;1.73;;;22.00;50.30;;;;;;2402213;55;20998;-72
2022/08/26 03:30:44;;;;;;;3.15;1.65;;;22.10;50.30;;;;;;2440994;54;21686;-75
2022/08/26 03:33:11;;;;;;;3.20;1.65;;;22.00;50.40;;;;;;2266612;55;20995;-74
2022/08/26 03:39:05;;;;;;;2.95;1.50;;;22.00;50.80;;;;;;2277514;55;21123;-75
2022/08/26 03:41:34;;;;;;;2.55;1.30;;;22.00;50.30;;;;;;2266228;55;21742;-75
2022/08/26 03:44:02;;;;;;;2.62;1.37;;;22.00;50.40;;;;;;2287647;55;20996;-75
2022/08/26 03:46:29;;;;;;;2.83;1.40;;;22.00;50.40;;;;;;2262431;56;20972;-73
2022/08/26 03:48:56;;;;;;;3.08;1.60;;;22.00;50.50;;;;;;2265546;55;20953;-72
2022/08/26 03:51:22;;;;;;;2.70;1.40;;;22.00;50.50;;;;;;2266281;55;20943;-73
2022/08/26 03:53:49;;;;;;;3.22;1.48;;;22.00;50.60;;;;;;2266096;55;21103;-73
2022/08/26 03:56:17;;;;;;;3.50;1.58;;;22.00;50.50;;;;;;2266641;55;22117;-73
2022/08/26 03:58:44;;;;;;;3.12;1.77;;;22.00;50.50;;;;;;2266114;55;20928;-73
2022/08/26 04:01:11;;;;;;;2.87;1.60;;;21.90;50.40;;;;;;2266177;55;21103;-73
2022/08/26 04:06:22;;;;;;;2.92;1.60;;;21.90;50.60;;;;;;2266304;55;21954;-72
2022/08/26 04:08:50;;;;;;;2.95;1.50;;;21.90;50.60;;;;;;2357162;55;21039;-73
2022/08/26 04:11:20;;;;;;;3.50;1.70;;;21.90;50.70;;;;;;2260907;56;20999;-73
2022/08/26 04:13:47;;;;;;;2.70;1.58;;;21.90;50.70;;;;;;2495709;55;21509;-75
2022/08/26 04:16:14;;;;;;;3.47;1.92;;;21.80;50.70;;;;;;2266274;55;20940;-74
2022/08/26 04:18:40;;;;;;;4.10;1.60;;;21.80;50.90;;;;;;2342140;55;20972;-74
2022/08/26 04:21:10;;;;;;;2.90;1.60;;;21.80;51.50;;;;;;2482231;55;20943;-73
2022/08/26 04:23:37;;;;;;;2.90;1.60;;;21.80;50.90;;;;;;2265822;55;21039;-75
2022/08/26 04:26:03;;;;;;;2.20;1.10;;;21.80;50.80;;;;;;2266000;55;21908;-73
2022/08/26 04:28:29;;;;;;;2.97;1.60;;;21.80;50.80;;;;;;2264411;56;21441;-74
2022/08/26 04:30:56;;;;;;;2.97;1.45;;;21.80;50.90;;;;;;2265083;55;22416;-74
2022/08/26 04:33:28;;;;;;;3.17;1.48;;;21.80;50.90;;;;;;2265329;55;21533;-75
2022/08/26 04:36:02;;;;;;;2.95;1.52;;;21.80;51.00;;;;;;2265645;55;21438;-74
2022/08/26 04:38:33;;;;;;;2.60;1.33;;;21.80;51.00;;;;;;2265610;55;20955;-73
2022/08/26 04:40:59;;;;;;;2.72;1.40;;;21.80;51.00;;;;;;2263134;55;21010;-75
2022/08/26 04:47:05;;;;;;;2.60;1.50;;;21.70;51.40;;;;;;2396452;55;20989;-72
2022/08/26 04:49:35;;;;;;;3.53;1.50;;;21.70;50.70;;;;;;2383464;55;20955;-73
2022/08/26 04:52:02;;;;;;;2.40;1.20;;;21.60;50.80;;;;;;2275413;55;21547;-74
2022/08/26 04:54:28;;;;;;;3.03;1.58;;;21.60;50.80;;;;;;2461367;54;20943;-72
2022/08/26 04:56:55;;;;;;;3.17;1.30;;;21.60;50.90;;;;;;2265822;55;21268;-73
2022/08/26 04:59:21;;;;;;;2.87;1.60;;;21.50;50.90;;;;;;2291007;55;21051;-73
2022/08/26 05:01:50;;;;;;;3.33;1.42;;;21.50;51.00;;;;;;2265484;55;20920;-73
2022/08/26 05:04:17;;;;;;;2.42;1.50;;;21.50;51.20;;;;;;2265992;55;21425;-73
2022/08/26 05:06:44;;;;;;;2.90;1.67;;;21.50;51.20;;;;;;2265254;55;20960;-76
2022/08/26 05:09:14;;;;;;;3.33;1.90;;;21.50;51.20;;;;;;2316351;55;20999;-73
2022/08/26 05:12:02;;;;;;;3.85;1.70;;;21.50;51.30;;;;;;2267208;55;21012;-73
2022/08/26 05:14:31;;;;;;;2.67;1.42;;;21.50;51.70;;;;;;2269641;55;20951;-75
2022/08/26 05:16:58;;;;;;;3.17;1.42;;;21.50;51.50;;;;;;2328444;55;21039;-74
2022/08/26 05:19:46;;;;;;;3.58;1.60;;;21.40;51.30;;;;;;2265748;55;20936;-73
2022/08/26 05:22:13;;;;;;;3.15;1.50;;;21.40;51.70;;;;;;2269787;55;21051;-72
2022/08/26 05:24:40;;;;;;;2.87;1.45;;;21.50;51.50;;;;;;2266047;55;21031;-73
2022/08/26 05:27:09;;;;;;;2.83;1.58;;;21.50;51.50;;;;;;2264220;56;20959;-73
2022/08/26 05:29:35;;;;;;;2.55;1.45;;;21.40;51.50;;;;;;2273400;55;20920;-73
2022/08/26 05:32:04;;;;;;;2.90;1.65;;;21.50;51.70;;;;;;2265349;55;20952;-74
2022/08/26 05:34:31;;;;;;;3.05;1.30;;;21.40;51.60;;;;;;2264089;55;20949;-73
2022/08/26 05:36:57;;;;;;;3.12;1.50;;;21.50;51.80;;;;;;2264518;55;21040;-73
2022/08/26 05:39:23;;;;;;;3.03;1.75;;;21.40;51.80;;;;;;2266703;55;21077;-73
2022/08/26 05:41:50;;;;;;;3.10;1.65;;;21.50;52.00;;;;;;2263206;56;21849;-73
2022/08/26 05:44:19;;;;;;;3.83;2.28;;;21.50;52.10;;;;;;2265468;55;20991;-73
2022/08/26 05:46:46;;;;;;;4.80;1.90;;;21.50;52.20;;;;;;2266499;55;21692;-75
2022/08/26 05:49:14;;;;;;;3.25;2.03;;;21.50;52.20;;;;;;2268309;55;21901;-73
2022/08/26 05:51:43;;;;;;;3.17;1.73;;;21.50;52.30;;;;;;2264120;56;20980;-73
2022/08/26 05:57:44;;;;;;;3.05;1.50;;;21.60;52.90;;;;;;2267017;55;20988;-73
2022/08/26 06:00:11;;;;;;;3.37;1.67;;;21.60;52.40;;;;;;2274257;55;21901;-73
2022/08/26 06:02:38;;;;;;;3.62;1.65;;;21.60;52.50;;;;;;2266318;55;21480;-73
2022/08/26 06:05:05;;;;;;;3.28;1.52;;;21.70;52.70;;;;;;2265882;55;21110;-73
2022/08/26 06:10:16;;;;;;;3.17;1.85;;;21.70;52.80;;;;;;2267788;55;20940;-73
2022/08/26 06:12:59;;;;;;;3.15;1.80;;;21.80;52.90;;;;;;2265508;55;21044;-73
2022/08/26 06:15:27;;;;;;;3.75;2.00;;;21.80;52.90;;;;;;2296575;55;20991;-73
2022/08/26 06:17:54;;;;;;;3.40;1.85;;;21.90;53.10;;;;;;2280887;55;20947;-72
2022/08/26 06:20:21;;;;;;;3.00;1.83;;;21.90;53.20;;;;;;2266566;55;21011;-73
2022/08/26 06:25:39;;;;;;;3.12;1.85;;;22.10;53.50;;;;;;2270522;55;20940;-73
2022/08/26 06:28:05;;;;;;;4.68;1.80;;;22.20;53.70;;;;;;2261942;55;21416;-73
2022/08/26 06:30:36;;;;;;;2.83;1.60;;;22.20;53.60;;;;;;2266232;55;20980;-74
2022/08/26 06:33:03;;;;;;;4.05;2.00;;;22.30;53.70;;;;;;2266313;55;20964;-72
2022/08/26 06:35:30;;;;;;;3.05;2.00;;;22.40;53.70;;;;;;2300320;55;20941;-73
2022/08/26 06:37:56;;;;;;;3.75;1.95;;;22.40;54.40;;;;;;2265044;56;20950;-72
2022/08/26 06:40:23;;;;;;;6.75;2.00;;;22.50;53.80;;;;;;2266687;55;21413;-73
2022/08/26 06:42:50;;;;;;;2.58;1.52;;;22.60;53.90;;;;;;2266613;55;21784;-73
2022/08/26 06:45:19;;;;;;;2.92;1.73;;;22.70;53.90;;;;;;2266301;55;21086;-74
2022/08/26 06:47:46;;;;;;;3.10;1.77;;;22.80;54.00;;;;;;2418082;55;20940;-74
2022/08/26 06:50:12;;;;;;;3.97;1.75;;;22.90;54.10;;;;;;2266269;55;21779;-74
2022/08/26 06:52:40;;;;;;;4.05;1.70;;;23.00;54.10;;;;;;2265251;55;20940;-73
2022/08/26 06:55:07;;;;;;;3.47;1.70;;;23.10;54.20;;;;;;2265238;55;20975;-73
2022/08/26 06:57:39;;;;;;;3.33;1.73;;;23.20;54.10;;;;;;2437421;55;20998;-75
2022/08/26 07:00:08;;;;;;;3.20;1.52;;;23.30;54.40;;;;;;2286130;55;20987;-73
2022/08/26 07:02:35;;;;;;;2.60;1.58;;;23.40;54.20;;;;;;2295213;55;20999;-73
2022/08/26 07:05:01;;;;;;;3.60;1.62;;;23.50;54.20;;;;;;2265531;55;21012;-73
2022/08/26 07:07:28;;;;;;;3.55;1.98;;;23.60;54.20;;;;;;2434320;55;20920;-74
2022/08/26 07:09:59;;;;;;;3.20;1.80;;;23.70;54.30;;;;;;2407657;55;21869;-73
2022/08/26 07:12:25;;;;;;;2.80;1.67;;;23.80;54.30;;;;;;2425963;55;21667;-73
2022/08/26 07:14:54;;;;;;;3.15;1.92;;;23.90;54.10;;;;;;2266410;55;21082;-73
2022/08/26 07:17:22;;;;;;;2.83;1.53;;;24.10;54.20;;;;;;2267235;55;20952;-73
2022/08/26 07:19:50;;;;;;;2.80;1.60;;;24.20;54.00;;;;;;2266469;55;20999;-75
2022/08/26 07:22:17;;;;;;;4.22;1.70;;;24.30;54.00;;;;;;2266126;55;20951;-73
2022/08/26 07:24:45;;;;;;;2.70;1.60;;;24.40;54.00;;;;;;2495855;55;20956;-73
2022/08/26 07:27:13;;;;;;;3.65;1.98;;;24.50;53.90;;;;;;2269684;55;20987;-72
2022/08/26 07:29:41;;;;;;;2.90;1.58;;;24.60;53.80;;;;;;2264942;55;21701;-72
2022/08/26 07:32:07;;;;;;;3.17;1.80;;;24.70;53.60;;;;;;2261212;55;20968;-72
2022/08/26 07:34:33;;;;;;;3.05;1.83;;;24.80;53.50;;;;;;2361965;55;20943;-72
2022/08/26 07:37:00;;;;;;;3.20;1.90;;;24.90;53.60;;;;;;2266620;55;20984;-71
2022/08/26 07:39:26;;;;;;;3.22;1.95;;;25.00;53.60;;;;;;2265955;55;21047;-72
2022/08/26 07:41:53;;;;;;;3.53;2.10;;;25.10;53.40;;;;;;2266294;55;21095;-73
2022/08/26 07:44:19;;;;;;;4.80;1.70;;;25.20;53.30;;;;;;2327091;55;20956;-72
2022/08/26 07:46:46;;;;;;;3.20;1.83;;;25.30;53.10;;;;;;2264917;55;21047;-72
2022/08/26 07:49:12;;;;;;;3.08;1.70;;;25.40;53.00;;;;;;2266576;55;20979;-71
2022/08/26 07:51:39;;;;;;;3.10;1.50;;;25.50;52.90;;;;;;2266398;55;20968;-71
2022/08/26 07:54:05;;;;;;;3.60;1.70;;;25.70;52.80;;;;;;2266354;55;20994;-74
2022/08/26 07:56:32;;;;;;;7.35;2.08;;;25.70;52.60;;;;;;2266231;55;21027;-71
2022/08/26 07:58:59;;;;;;;2.33;1.35;;;25.90;52.60;;;;;;2266457;55;20975;-71
2022/08/26 08:01:25;;;;;;;3.62;1.77;;;25.90;52.40;;;;;;2266546;55;20927;-72
2022/08/26 08:03:52;;;;;;;2.75;1.67;;;26.10;52.20;;;;;;2266743;55;21845;-71
2022/08/26 08:06:19;;;;;;;3.08;1.67;;;26.20;52.10;;;;;;2359901;55;21780;-71
2022/08/26 08:08:46;;;;;;;2.70;1.70;;;26.30;51.90;;;;;;2334933;55;20960;-71
2022/08/26 08:11:13;;;;;;;4.03;1.52;;;26.40;51.80;;;;;;2266114;55;21028;-71
2022/08/26 08:13:42;;;;;;;3.35;1.70;;;26.50;51.80;;;;;;2266234;55;20947;-71
2022/08/26 08:16:08;;;;;;;2.92;1.55;;;26.60;51.70;;;;;;2404206;55;20975;-72
2022/08/26 08:18:34;;;;;;;3.12;1.80;;;26.70;51.40;;;;;;2265243;55;21015;-74
2022/08/26 08:21:02;;;;;;;2.97;1.85;;;26.70;51.10;;;;;;2269059;55;21047;-72
2022/08/26 08:23:36;;;;;;;3.87;1.90;;;26.90;51.10;;;;;;2329992;55;21040;-72
2022/08/26 08:26:04;;;;;;;3.42;2.12;;;26.90;50.90;;;;;;2261826;55;21004;-72
2022/08/26 08:28:31;;;;;;;3.00;1.67;;;27.00;50.60;;;;;;2260131;56;20929;-71
2022/08/26 08:30:57;;;;;;;3.28;2.00;;;27.10;50.40;;;;;;2264619;55;21928;-72
2022/08/26 08:33:24;;;;;;;3.15;1.70;;;27.20;50.50;;;;;;2266760;55;20999;-71
2022/08/26 08:35:51;;;;;;;4.00;1.95;;;27.20;50.30;;;;;;2287648;55;20983;-74
2022/08/26 08:38:17;;;;;;;3.53;1.85;;;27.30;50.20;;;;;;2266160;55;21801;-71
2022/08/26 08:40:44;;;;;;;3.53;1.90;;;27.40;50.00;;;;;;2402070;55;20961;-74
2022/08/26 08:43:16;;;;;;;3.10;1.80;;;27.40;49.80;;;;;;2450696;55;20984;-71
2022/08/26 08:45:49;;;;;;;;;;;27.50;49.70;;;;;;2270672;56;20949;-72
2022/08/26 08:48:29;;;;;;;3.42;1.48;;;27.60;49.60;;;;;;2264268;55;20077;-74
2022/08/26 08:51:17;;;;;;;2.87;1.67;;;27.70;49.40;;;;;;2266921;55;21745;-73
2022/08/26 08:53:44;;;;;;;3.25;1.80;;;27.70;49.40;;;;;;2265557;55;20997;-72
2022/08/26 08:57:42;;;;;;;2.72;1.55;;;27.80;49.40;;;;;;2267624;55;21016;-71
2022/08/26 09:00:12;;;;;;;3.20;1.60;;;27.80;49.30;;;;;;2276875;55;21812;-74
2022/08/26 09:02:46;;;;;;;3.05;1.83;;;27.90;49.10;;;;;;2262286;55;20963;-71
2022/08/26 09:05:23;;;;;;;3.30;2.17;;;28.00;48.90;;;;;;2266479;54;21032;-74
2022/08/26 09:07:56;;;;;;;5.35;2.05;;;28.10;48.70;;;;;;2266216;55;20955;-72
2022/08/26 09:11:22;;;;;;;3.15;1.83;;;28.20;48.80;;;;;;2294771;55;21333;-74
2022/08/26 09:13:51;;;;;;;3.53;2.03;;;28.20;48.70;;;;;;2266144;55;20948;-71
2022/08/26 09:16:26;;;;;;;3.00;1.85;;;28.30;48.80;;;;;;2266584;55;20947;-72
2022/08/26 09:19:48;;;;;;;4.68;1.87;;;28.40;48.80;;;;;;2265863;56;21000;-72
2022/08/26 09:22:29;;;;;;;4.03;1.77;;;28.50;48.60;;;;;;2384281;55;21074;-71
2022/08/26 09:24:55;;;;;;;3.87;1.90;;;28.60;48.40;;;;;;2265776;55;20973;-73
2022/08/26 09:27:44;;;;;;;3.55;1.75;;;28.60;48.40;;;;;;2264277;55;21844;-74
2022/08/26 09:30:26;;;;;;;3.65;2.15;;;28.70;47.90;;;;;;2268566;55;21454;-72
2022/08/26 09:33:08;;;;;;;2.95;1.95;;;28.80;48.20;;;;;;2262731;55;20972;-74
2022/08/26 09:35:41;;;;;;;3.20;1.77;;;28.90;48.70;;;;;;2266475;55;21376;-73
2022/08/26 09:38:24;;;;;;;3.37;2.00;;;29.00;48.10;;;;;;2267607;55;20956;-74
2022/08/26 09:41:01;;;;;;;6.10;2.22;;;29.00;47.80;;;;;;2397840;55;20941;-73
2022/08/26 09:43:30;;;;;;;4.37;2.30;;;29.10;47.40;;;;;;2490886;55;20987;-74
2022/08/26 09:46:18;;;;;;;3.30;2.08;;;29.20;47.60;;;;;;2312161;55;21405;-72
2022/08/26 09:48:46;;;;;;;3.78;2.12;;;29.20;47.00;;;;;;2265979;55;21023;-71
2022/08/26 09:51:30;;;;;;;3.62;1.92;;;29.30;47.80;;;;;;2266353;55;20947;-70
2022/08/26 09:53:58;;;;;;;3.50;2.20;;;29.40;47.00;;;;;;2266377;55;21461;-74
2022/08/26 09:56:27;;;;;;;4.18;2.45;;;29.40;47.20;;;;;;2258164;56;20983;-74
2022/08/26 09:58:53;;;;;;;2.95;1.70;;;29.50;47.10;;;;;;2257824;55;20977;-72
2022/08/26 10:01:41;;;;;;;3.28;1.87;;;29.50;47.00;;;;;;2236938;56;21033;-71
2022/08/26 10:04:12;;;;;;;3.08;1.90;;;29.60;46.70;;;;;;2263976;55;20963;-72
2022/08/26 10:06:53;;;;;;;3.20;2.03;;;29.70;46.80;;;;;;2268471;55;21038;-72
2022/08/26 10:09:19;;;;;;;3.50;1.92;;;29.80;46.70;;;;;;2264877;56;21114;-71
2022/08/26 10:11:53;;;;;;;3.67;2.10;;;29.80;46.60;;;;;;2268792;55;20970;-72
2022/08/26 10:14:40;;;;;;;2.80;1.60;;;29.90;46.40;;;;;;2420629;55;21083;-73
2022/08/26 10:17:40;;;;;;;3.25;1.83;;;30.00;46.40;;;;;;2265475;55;21381;-71
2022/08/26 10:20:21;;;;;;;3.97;2.00;;;30.00;46.60;;;;;;2266692;55;20948;-75
2022/08/26 10:23:11;;;;;;;2.90;1.90;;;30.10;46.30;;;;;;2263642;55;20979;-71
2022/08/26 10:26:23;;;;;;;2.83;1.75;;;30.20;46.20;;;;;;2469741;55;20967;-71
2022/08/26 10:28:53;;;;;;;4.18;1.80;;;30.30;45.80;;;;;;2260926;55;21000;-71
2022/08/26 10:32:09;;;;;;;3.50;1.80;;;30.40;45.80;;;;;;2476755;55;21011;-72
2022/08/26 10:34:37;;;;;;;2.95;1.73;;;30.40;45.40;;;;;;2259766;55;21055;-73
2022/08/26 10:37:09;;;;;;;3.00;1.50;;;30.50;45.60;;;;;;2251512;56;21027;-74
2022/08/26 10:40:13;;;;;;;3.12;1.90;;;30.50;45.50;;;;;;2260775;56;21796;-75
2022/08/26 10:42:44;;;;;;;3.47;1.90;;;30.70;45.00;;;;;;2265541;55;20948;-74
2022/08/26 10:45:18;;;;;;;2.90;1.80;;;30.70;45.30;;;;;;2264118;55;21004;-73
2022/08/26 10:47:54;;;;;;;5.10;2.08;;;30.80;45.30;;;;;;2266340;55;21007;-72
2022/08/26 10:50:22;;;;;;;3.40;2.10;;;30.80;45.20;;;;;;2395818;55;20939;-73
2022/08/26 10:55:16;;;;;;;2.83;1.95;;;30.90;45.20;;;;;;2263914;55;21809;-71
2022/08/26 10:57:55;;;;;;;3.10;1.75;;;31.00;45.00;;;;;;2266968;55;21011;-72
2022/08/26 11:03:42;;;;;;;3.12;1.67;;;31.10;44.70;;;;;;2266882;55;21016;-71
2022/08/26 11:06:31;;;;;;;3.75;1.87;;;31.20;44.20;;;;;;2266161;55;21384;-71
2022/08/26 11:09:34;;;;;;;3.10;1.83;;;31.20;44.00;;;;;;2320521;56;22340;-71
2022/08/26 11:12:02;;;;;;;2.75;1.90;;;31.30;43.90;;;;;;2265000;55;20968;-75
2022/08/26 11:14:32;;;;;;;3.12;2.05;;;31.30;44.30;;;;;;2266887;55;21000;-74
2022/08/26 11:17:00;;;;;;;4.80;1.77;;;31.40;44.30;;;;;;2265955;55;20979;-71
2022/08/26 11:21:06;;;;;;;3.45;2.00;;;31.40;44.10;;;;;;2266904;55;20944;-75
2022/08/26 11:23:36;;;;;;;3.62;1.80;;;31.50;43.50;;;;;;2264188;55;20938;-71
2022/08/26 11:26:15;;;;;;;3.22;2.00;;;31.60;43.90;;;;;;2266098;55;20960;-71
2022/08/26 11:28:50;;;;;;;3.03;1.80;;;31.70;43.80;;;;;;2284305;55;20943;-71
2022/08/26 11:32:24;;;;;;;3.60;2.22;;;31.70;43.70;;;;;;2266477;55;21059;-72
2022/08/26 11:34:56;;;;;;;3.10;1.77;;;31.80;43.40;;;;;;2369895;55;20955;-71
2022/08/26 11:37:30;;;;;;;4.18;1.90;;;31.90;43.50;;;;;;2266036;55;21066;-71
2022/08/26 11:39:59;;;;;;;3.37;1.95;;;31.90;43.20;;;;;;2267030;55;20967;-72
2022/08/26 11:42:50;;;;;;;3.25;1.83;;;32.00;43.20;;;;;;2266237;55;21001;-73
2022/08/26 11:45:37;;;;;;;4.22;2.33;;;32.10;43.90;;;;;;2266282;56;20941;-72
2022/08/26 11:48:17;;;;;;;3.25;2.10;;;32.20;43.00;;;;;;2267940;55;21002;-72
2022/08/26 11:51:20;;;;;;;2.97;1.80;;;32.20;42.90;;;;;;2334561;55;20939;-72
2022/08/26 11:53:46;;;;;;;3.00;1.73;;;32.30;42.70;;;;;;2266256;55;21425;-71
2022/08/26 11:56:25;;;;;;;3.17;2.03;;;32.30;42.90;;;;;;2265986;55;21044;-73
2022/08/26 11:59:29;;;;;;;3.47;2.20;;;32.30;42.30;;;;;;2496145;55;20948;-72
2022/08/26 12:01:55;;;;;;;2.92;1.83;;;32.40;42.30;;;;;;2408700;54;21446;-73
2022/08/26 12:04:54;;;;;;;3.20;1.92;;;32.50;42.60;;;;;;2372920;55;21020;-72
2022/08/26 12:07:26;;;;;;;4.37;2.12;;;32.50;42.10;;;;;;2279717;55;20964;-72
2022/08/26 12:10:00;;;;;;;3.78;2.30;;;32.60;42.30;;;;;;2266051;56;20936;-74
2022/08/26 12:12:37;;;;;;;3.25;1.65;;;32.60;42.30;;;;;;2273270;55;21435;-74
2022/08/26 12:15:14;;;;;;;3.45;2.20;;;32.70;42.10;;;;;;2268931;55;21056;-73
2022/08/26 12:17:41;;;;;;;4.45;2.30;;;32.70;42.20;;;;;;2266318;55;21033;-72
2022/08/26 12:20:45;;;;;;;3.50;2.00;;;32.70;41.90;;;;;;2262430;55;21004;-76
2022/08/26 12:23:34;;;;;;;3.60;1.92;;;32.80;41.60;;;;;;2262606;55;21725;-72
2022/08/26 12:27:42;;;;;;;3.67;2.03;;;32.80;41.60;;;;;;2274311;55;20948;-72
2022/08/26 12:30:11;;;;;;;3.08;1.80;;;32.90;41.50;;;;;;2416833;56;20940;-74
2022/08/26 12:32:39;;;;;;;3.67;1.83;;;32.90;41.40;;;;;;2315118;55;20959;-73
2022/08/26 12:35:09;;;;;;;2.87;1.75;;;33.00;41.30;;;;;;2267672;55;21488;-72
2022/08/26 12:37:39;;;;;;;3.00;1.85;;;33.00;41.20;;;;;;2373121;55;21050;-72
2022/08/26 12:40:42;;;;;;;3.70;2.35;;;33.00;41.10;;;;;;2266088;55;21686;-72
2022/08/26 12:43:09;;;;;;;3.62;1.80;;;33.10;40.70;;;;;;2275667;55;20957;-73
2022/08/26 12:45:52;;;;;;;3.15;2.10;;;33.10;41.10;;;;;;2256859;55;20948;-72
2022/08/26 12:48:25;;;;;;;9.35;2.20;;;33.10;40.90;;;;;;2266620;55;21643;-72
2022/08/26 12:50:51;;;;;;;3.20;1.95;;;33.20;40.70;;;;;;2266595;55;20996;-72
2022/08/26 12:53:39;;;;;;;3.83;1.90;;;33.20;40.80;;;;;;2266633;55;21051;-71
2022/08/26 12:56:51;;;;;;;2.92;1.90;;;33.30;40.50;;;;;;2266587;55;20987;-72
2022/08/26 12:59:23;;;;;;;2.67;1.70;;;33.30;40.80;;;;;;2272246;55;20955;-71
2022/08/26 13:01:49;;;;;;;2.90;1.80;;;33.40;40.60;;;;;;2266500;55;21028;-72
2022/08/26 13:04:32;;;;;;;5.78;1.95;;;33.40;40.60;;;;;;2261261;55;21959;-72
2022/08/26 13:07:18;;;;;;;5.03;1.73;;;33.50;40.60;;;;;;2267334;55;21536;-73
2022/08/26 13:09:45;;;;;;;3.40;1.95;;;33.50;40.10;;;;;;2263415;55;20968;-73
2022/08/26 13:12:25;;;;;;;2.87;1.60;;;33.60;40.30;;;;;;2268326;55;21032;-71
2022/08/26 13:14:52;;;;;;;3.05;1.80;;;33.60;40.00;;;;;;2266381;55;20981;-72
2022/08/26 13:17:19;;;;;;;3.28;1.83;;;33.70;40.30;;;;;;2327639;56;21425;-72
2022/08/26 13:20:10;;;;;;;4.00;2.20;;;33.70;40.30;;;;;;2265990;55;21317;-72
2022/08/26 13:22:37;;;;;;;3.53;1.92;;;33.80;39.90;;;;;;2265871;55;21078;-73
2022/08/26 13:25:03;;;;;;;3.10;2.10;;;33.80;40.10;;;;;;2266603;55;20979;-72
2022/08/26 13:27:31;;;;;;;4.65;2.03;;;33.90;40.10;;;;;;2266349;55;20959;-72
2022/08/26 13:30:00;;;;;;;3.50;1.90;;;34.00;40.00;;;;;;2266223;55;21338;-74
2022/08/26 13:32:26;;;;;;;4.03;2.33;;;34.00;39.90;;;;;;2266322;55;21051;-75
2022/08/26 13:34:53;;;;;;;3.58;2.30;;;34.00;39.80;;;;;;2266557;55;21413;-72
2022/08/26 13:37:26;;;;;;;3.87;2.30;;;34.10;39.50;;;;;;2259846;55;20983;-72
2022/08/26 13:39:54;;;;;;;2.92;1.85;;;34.10;39.00;;;;;;2266364;55;21031;-74
2022/08/26 13:42:21;;;;;;;3.53;2.08;;;34.20;39.20;;;;;;2266367;55;21430;-75